MDT,Max TemperatureF,Mean TemperatureF,Min TemperatureF,Max Dew PointF,MeanDew PointF,Min DewpointF,Max Humidity, Mean Humidity, Min Humidity, Max Sea Level PressureIn, Mean Sea Level PressureIn, Min Sea Level PressureIn, Max VisibilityMiles, Mean VisibilityMiles, Min VisibilityMiles, Max Wind SpeedMPH, Mean Wind SpeedMPH, Max Gust SpeedMPH,PrecipitationIn, CloudCover, Events, WindDirDegrees
2013-5-1,60,45,29,19,13,4,64,32,12,30.58,30.45,30.27,10,10,10,20,15,23,0.00,0,,310
2013-5-2,70,49,27,22,14,8,62,28,10,30.62,30.48,30.27,10,10,10,16,8,23,0.00,0,,97
2013-5-3,75,56,36,25,20,8,46,26,8,30.25,30.11,29.96,10,10,10,23,7,31,0.00,1,,343
2013-5-4,70,57,44,40,34,26,66,44,24,30.03,29.97,29.88,10,10,10,22,8,29,T,5,Rain,17
2013-5-5,78,59,40,35,32,26,71,41,15,29.92,29.84,29.73,10,10,10,20,5,25,0.00,1,,89
2013-5-6,81,63,45,42,35,32,58,36,19,29.87,29.78,29.69,10,10,5,26,7,53,T,4,Rain-Thunderstorm,68
2013-5-7,74,60,45,48,42,37,72,52,29,29.94,29.84,29.76,10,10,10,22,8,29,T,5,Rain,92
2013-5-8,78,63,48,44,41,36,70,46,24,30.05,29.97,29.91,10,10,6,23,7,34,T,4,,76
2013-5-9,84,64,44,44,40,32,80,43,18,30.11,30.04,29.96,10,10,10,32,7,41,T,3,Thunderstorm,74
2013-5-10,,,,,,,,,,,,,,,,,,,0.00,,,-1
2013-5-11,,,,,,,,,,,,,,,,,,,,,,
2013-5-12,,,,,,,,,,,,,,,,,,,,,,
2013-5-13,95,75,55,43,31,17,63,24,6,30.06,29.95,29.84,10,10,10,31,10,33,T,2,,260
2013-5-14,82,67,51,43,38,34,62,35,21,30.04,29.94,29.83,10,10,10,22,15,29,0.00,0,,313
2013-5-15,80,64,48,38,34,30,55,33,17,29.94,29.85,29.75,10,10,10,20,11,20,T,2,,310
2013-5-16,68,62,55,52,40,34,89,48,32,29.92,29.84,29.79,10,10,10,20,12,,0.02,7,Rain,305
2013-5-17,68,60,52,54,46,40,97,67,37,29.95,29.86,29.81,10,10,6,22,7,24,0.04,7,Rain,300
2013-5-18,69,58,47,44,35,30,82,42,25,30.05,30.00,29.94,10,10,10,23,14,29,T,4,Rain,309
2013-5-19,68,58,48,37,34,32,65,43,27,30.14,30.09,30.04,10,10,10,30,23,38,0.00,1,,305
2013-5-20,75,61,46,37,33,29,63,39,18,30.19,30.09,29.95,10,10,10,20,13,22,0.00,0,,323
2013-5-21,87,67,46,39,28,14,58,27,7,29.95,29.68,29.47,10,9,4,36,15,36,0.00,3,,140
2013-5-22,59,48,37,33,15,1,55,25,10,29.93,29.87,29.66,10,10,10,28,19,32,T,1,,322
2013-5-23,66,47,28,16,10,5,45,20,9,29.94,29.88,29.85,10,10,10,21,9,25,0.00,1,,316
2013-5-24,76,55,34,28,20,14,60,26,11,29.99,29.91,29.80,10,10,10,21,7,23,0.00,0,,100
2013-5-25,74,62,50,34,30,27,50,30,19,29.93,29.86,29.81,10,10,10,20,15,25,0.00,1,,320
2013-5-26,73,61,48,50,39,25,89,50,23,29.99,29.90,29.81,10,10,5,31,11,36,0.02,5,Rain-Thunderstorm,309
2013-5-27,69,55,40,50,41,32,99,61,26,30.02,29.91,29.82,10,10,8,21,7,30,0.02,5,Rain,70
2013-5-28,67,57,46,50,44,37,100,66,35,29.85,29.82,29.76,10,10,8,24,11,33,0.03,7,Rain,313
2013-5-29,68,55,41,48,41,32,83,62,26,29.88,29.78,29.71,10,9,2,25,8,30,0.06,6,Rain,323
2013-5-30,68,57,45,42,34,28,82,41,24,30.04,29.97,29.90,10,10,10,23,13,32,0.00,4,,314
2013-5-31,71,57,42,33,28,20,60,34,16,30.20,30.15,30.07,10,10,10,23,15,30,0.00,0,,310